sensor_id;sensor_type;location;lat;lon;timestamp;P1;durP1;ratioP1;P2;durP2;ratioP2
5585;SDS011;2815;54.094;12.112;2023-05-03T00:00:22;5.28;;;1.58;;
5585;SDS011;2815;54.094;12.112;2023-05-03T00:02:52;4.47;;;1.50;;
5585;SDS011;2815;54.094;12.112;2023-05-03T00:05:24;5.88;;;1.83;;
5585;SDS011;2815;54.094;12.112;2023-05-03T00:07:53;4.75;;;1.42;;
5585;SDS011;2815;54.094;12.112;2023-05-03T00:10:23;6.28;;;1.88;;
5585;SDS011;2815;54.094;12.112;2023-05-03T00:12:51;7.25;;;2.10;;
5585;SDS011;2815;54.094;12.112;2023-05-03T00:15:19;7.85;;;1.67;;
5585;SDS011;2815;54.094;12.112;2023-05-03T00:17:47;3.55;;;1.63;;
5585;SDS011;2815;54.094;12.112;2023-05-03T00:20:15;5.93;;;1.63;;
5585;SDS011;2815;54.094;12.112;2023-05-03T00:22:44;9.65;;;2.40;;
5585;SDS011;2815;54.094;12.112;2023-05-03T00:25:12;5.25;;;1.60;;
5585;SDS011;2815;54.094;12.112;2023-05-03T00:27:42;6.03;;;1.40;;
5585;SDS011;2815;54.094;12.112;2023-05-03T00:30:10;5.82;;;1.90;;
5585;SDS011;2815;54.094;12.112;2023-05-03T00:32:39;5.38;;;1.70;;
5585;SDS011;2815;54.094;12.112;2023-05-03T00:35:07;3.00;;;1.55;;
5585;SDS011;2815;54.094;12.112;2023-05-03T00:37:35;3.60;;;1.60;;
5585;SDS011;2815;54.094;12.112;2023-05-03T00:40:04;3.45;;;1.70;;
5585;SDS011;2815;54.094;12.112;2023-05-03T00:42:32;11.70;;;2.53;;
5585;SDS011;2815;54.094;12.112;2023-05-03T00:45:05;3.88;;;1.63;;
5585;SDS011;2815;54.094;12.112;2023-05-03T00:47:33;4.78;;;1.38;;
5585;SDS011;2815;54.094;12.112;2023-05-03T00:50:03;7.15;;;1.80;;
5585;SDS011;2815;54.094;12.112;2023-05-03T00:52:32;8.43;;;1.85;;
5585;SDS011;2815;54.094;12.112;2023-05-03T00:55:01;7.15;;;1.60;;
5585;SDS011;2815;54.094;12.112;2023-05-03T00:57:29;3.28;;;1.55;;
5585;SDS011;2815;54.094;12.112;2023-05-03T00:59:57;4.93;;;1.88;;
5585;SDS011;2815;54.094;12.112;2023-05-03T01:02:26;7.70;;;1.65;;
5585;SDS011;2815;54.094;12.112;2023-05-03T01:04:54;5.10;;;1.70;;
5585;SDS011;2815;54.094;12.112;2023-05-03T01:07:24;5.05;;;1.77;;
5585;SDS011;2815;54.094;12.112;2023-05-03T01:09:58;7.28;;;1.73;;
5585;SDS011;2815;54.094;12.112;2023-05-03T01:12:31;6.40;;;1.95;;
5585;SDS011;2815;54.094;12.112;2023-05-03T01:15:05;3.40;;;1.38;;
5585;SDS011;2815;54.094;12.112;2023-05-03T01:17:38;8.45;;;1.90;;
5585;SDS011;2815;54.094;12.112;2023-05-03T01:20:08;5.90;;;2.33;;
5585;SDS011;2815;54.094;12.112;2023-05-03T01:22:38;7.25;;;1.75;;
5585;SDS011;2815;54.094;12.112;2023-05-03T01:25:12;5.22;;;1.45;;
5585;SDS011;2815;54.094;12.112;2023-05-03T01:27:41;6.13;;;1.95;;
5585;SDS011;2815;54.094;12.112;2023-05-03T01:30:10;8.05;;;1.63;;
5585;SDS011;2815;54.094;12.112;2023-05-03T01:32:43;5.80;;;1.75;;
5585;SDS011;2815;54.094;12.112;2023-05-03T01:35:19;4.47;;;1.48;;
5585;SDS011;2815;54.094;12.112;2023-05-03T01:37:50;6.20;;;1.98;;
5585;SDS011;2815;54.094;12.112;2023-05-03T01:40:20;6.03;;;2.00;;
5585;SDS011;2815;54.094;12.112;2023-05-03T01:42:49;8.07;;;2.10;;
5585;SDS011;2815;54.094;12.112;2023-05-03T01:45:17;3.63;;;1.52;;
5585;SDS011;2815;54.094;12.112;2023-05-03T01:47:46;8.88;;;2.15;;
5585;SDS011;2815;54.094;12.112;2023-05-03T01:50:14;5.72;;;2.03;;
5585;SDS011;2815;54.094;12.112;2023-05-03T01:52:42;5.47;;;2.10;;
5585;SDS011;2815;54.094;12.112;2023-05-03T01:55:10;4.45;;;1.52;;
5585;SDS011;2815;54.094;12.112;2023-05-03T01:57:39;7.45;;;2.00;;
5585;SDS011;2815;54.094;12.112;2023-05-03T02:00:08;5.60;;;1.98;;
5585;SDS011;2815;54.094;12.112;2023-05-03T02:02:40;4.13;;;1.70;;
5585;SDS011;2815;54.094;12.112;2023-05-03T02:05:08;7.40;;;2.33;;
5585;SDS011;2815;54.094;12.112;2023-05-03T02:07:36;9.65;;;2.42;;
5585;SDS011;2815;54.094;12.112;2023-05-03T02:10:05;6.78;;;1.88;;
5585;SDS011;2815;54.094;12.112;2023-05-03T02:12:33;7.35;;;1.92;;
5585;SDS011;2815;54.094;12.112;2023-05-03T02:15:03;4.47;;;1.73;;
5585;SDS011;2815;54.094;12.112;2023-05-03T02:17:32;6.68;;;1.80;;
5585;SDS011;2815;54.094;12.112;2023-05-03T02:20:00;6.15;;;2.00;;
5585;SDS011;2815;54.094;12.112;2023-05-03T02:22:31;10.48;;;2.25;;
5585;SDS011;2815;54.094;12.112;2023-05-03T02:24:59;5.72;;;1.65;;
5585;SDS011;2815;54.094;12.112;2023-05-03T02:27:27;4.18;;;1.70;;
5585;SDS011;2815;54.094;12.112;2023-05-03T02:29:55;5.35;;;1.70;;
5585;SDS011;2815;54.094;12.112;2023-05-03T02:32:25;3.60;;;1.50;;
5585;SDS011;2815;54.094;12.112;2023-05-03T02:34:53;2.78;;;1.52;;
5585;SDS011;2815;54.094;12.112;2023-05-03T02:37:23;5.72;;;1.80;;
5585;SDS011;2815;54.094;12.112;2023-05-03T02:39:51;9.13;;;1.83;;
5585;SDS011;2815;54.094;12.112;2023-05-03T02:42:20;6.97;;;1.80;;
5585;SDS011;2815;54.094;12.112;2023-05-03T02:44:48;5.35;;;1.92;;
5585;SDS011;2815;54.094;12.112;2023-05-03T02:47:16;5.03;;;1.63;;
5585;SDS011;2815;54.094;12.112;2023-05-03T02:49:46;3.28;;;1.80;;
5585;SDS011;2815;54.094;12.112;2023-05-03T02:52:15;6.45;;;1.85;;
5585;SDS011;2815;54.094;12.112;2023-05-03T02:54:43;7.18;;;1.60;;
5585;SDS011;2815;54.094;12.112;2023-05-03T02:57:12;10.35;;;2.03;;
5585;SDS011;2815;54.094;12.112;2023-05-03T02:59:40;4.15;;;1.77;;
5585;SDS011;2815;54.094;12.112;2023-05-03T03:02:08;7.28;;;1.50;;
5585;SDS011;2815;54.094;12.112;2023-05-03T03:04:37;5.05;;;1.75;;
5585;SDS011;2815;54.094;12.112;2023-05-03T03:07:06;4.95;;;1.65;;
5585;SDS011;2815;54.094;12.112;2023-05-03T03:09:34;6.43;;;1.80;;
5585;SDS011;2815;54.094;12.112;2023-05-03T03:12:02;7.22;;;1.88;;
5585;SDS011;2815;54.094;12.112;2023-05-03T03:14:31;7.90;;;1.80;;
5585;SDS011;2815;54.094;12.112;2023-05-03T03:17:00;7.22;;;1.85;;
5585;SDS011;2815;54.094;12.112;2023-05-03T03:19:28;9.40;;;2.03;;
5585;SDS011;2815;54.094;12.112;2023-05-03T03:21:56;5.68;;;1.73;;
5585;SDS011;2815;54.094;12.112;2023-05-03T03:24:26;4.72;;;1.63;;
5585;SDS011;2815;54.094;12.112;2023-05-03T03:37:36;5.38;;;1.60;;
5585;SDS011;2815;54.094;12.112;2023-05-03T03:40:06;8.90;;;1.85;;
5585;SDS011;2815;54.094;12.112;2023-05-03T03:42:36;11.38;;;2.00;;
5585;SDS011;2815;54.094;12.112;2023-05-03T03:45:06;3.70;;;1.55;;
5585;SDS011;2815;54.094;12.112;2023-05-03T03:47:35;7.40;;;2.22;;
5585;SDS011;2815;54.094;12.112;2023-05-03T03:50:04;8.27;;;1.70;;
5585;SDS011;2815;54.094;12.112;2023-05-03T03:52:35;11.60;;;1.90;;
5585;SDS011;2815;54.094;12.112;2023-05-03T03:55:04;5.57;;;1.58;;
5585;SDS011;2815;54.094;12.112;2023-05-03T03:57:33;8.15;;;1.95;;
5585;SDS011;2815;54.094;12.112;2023-05-03T04:00:01;5.68;;;2.20;;
5585;SDS011;2815;54.094;12.112;2023-05-03T04:02:38;13.40;;;1.90;;
5585;SDS011;2815;54.094;12.112;2023-05-03T04:05:13;8.07;;;2.28;;
5585;SDS011;2815;54.094;12.112;2023-05-03T04:07:45;5.90;;;1.75;;
5585;SDS011;2815;54.094;12.112;2023-05-03T04:10:16;9.07;;;2.03;;
5585;SDS011;2815;54.094;12.112;2023-05-03T04:12:44;6.80;;;1.75;;
5585;SDS011;2815;54.094;12.112;2023-05-03T04:15:13;8.38;;;1.63;;
5585;SDS011;2815;54.094;12.112;2023-05-03T04:17:44;6.82;;;1.90;;
5585;SDS011;2815;54.094;12.112;2023-05-03T04:20:12;4.68;;;1.83;;
5585;SDS011;2815;54.094;12.112;2023-05-03T04:22:46;8.20;;;1.90;;
5585;SDS011;2815;54.094;12.112;2023-05-03T04:25:16;8.50;;;2.17;;
5585;SDS011;2815;54.094;12.112;2023-05-03T04:27:58;7.83;;;2.20;;
5585;SDS011;2815;54.094;12.112;2023-05-03T04:30:28;9.57;;;2.65;;
5585;SDS011;2815;54.094;12.112;2023-05-03T04:32:59;9.88;;;2.45;;
5585;SDS011;2815;54.094;12.112;2023-05-03T04:35:31;8.95;;;2.35;;
5585;SDS011;2815;54.094;12.112;2023-05-03T04:38:06;8.23;;;2.40;;
5585;SDS011;2815;54.094;12.112;2023-05-03T04:40:35;8.98;;;2.25;;
5585;SDS011;2815;54.094;12.112;2023-05-03T04:43:07;6.82;;;1.85;;
5585;SDS011;2815;54.094;12.112;2023-05-03T04:45:38;12.52;;;2.10;;
5585;SDS011;2815;54.094;12.112;2023-05-03T04:50:39;8.27;;;1.73;;
5585;SDS011;2815;54.094;12.112;2023-05-03T04:53:10;6.97;;;1.73;;
5585;SDS011;2815;54.094;12.112;2023-05-03T04:55:41;13.60;;;2.35;;
5585;SDS011;2815;54.094;12.112;2023-05-03T04:58:10;6.05;;;1.70;;
5585;SDS011;2815;54.094;12.112;2023-05-03T05:00:40;8.93;;;1.70;;
5585;SDS011;2815;54.094;12.112;2023-05-03T05:03:14;5.65;;;1.55;;
5585;SDS011;2815;54.094;12.112;2023-05-03T05:05:42;13.57;;;1.77;;
5585;SDS011;2815;54.094;12.112;2023-05-03T05:08:12;11.63;;;1.95;;
5585;SDS011;2815;54.094;12.112;2023-05-03T05:10:46;13.45;;;2.55;;
5585;SDS011;2815;54.094;12.112;2023-05-03T05:13:19;8.70;;;1.83;;
5585;SDS011;2815;54.094;12.112;2023-05-03T05:15:47;11.98;;;1.85;;
5585;SDS011;2815;54.094;12.112;2023-05-03T05:18:16;8.02;;;1.50;;
5585;SDS011;2815;54.094;12.112;2023-05-03T05:20:45;5.03;;;1.60;;
5585;SDS011;2815;54.094;12.112;2023-05-03T05:23:16;8.32;;;2.10;;
5585;SDS011;2815;54.094;12.112;2023-05-03T05:25:45;8.40;;;1.60;;
5585;SDS011;2815;54.094;12.112;2023-05-03T05:28:14;8.98;;;2.30;;
5585;SDS011;2815;54.094;12.112;2023-05-03T05:30:43;8.20;;;1.80;;
5585;SDS011;2815;54.094;12.112;2023-05-03T05:33:11;6.57;;;1.50;;
5585;SDS011;2815;54.094;12.112;2023-05-03T05:35:41;7.13;;;1.70;;
5585;SDS011;2815;54.094;12.112;2023-05-03T05:38:09;8.10;;;1.80;;
5585;SDS011;2815;54.094;12.112;2023-05-03T05:40:39;12.20;;;2.08;;
5585;SDS011;2815;54.094;12.112;2023-05-03T05:43:07;9.15;;;1.80;;
5585;SDS011;2815;54.094;12.112;2023-05-03T05:45:38;8.57;;;1.70;;
5585;SDS011;2815;54.094;12.112;2023-05-03T05:48:06;12.52;;;1.52;;
5585;SDS011;2815;54.094;12.112;2023-05-03T05:50:34;12.38;;;1.35;;
5585;SDS011;2815;54.094;12.112;2023-05-03T05:53:07;6.85;;;1.63;;
5585;SDS011;2815;54.094;12.112;2023-05-03T05:55:41;8.73;;;2.20;;
5585;SDS011;2815;54.094;12.112;2023-05-03T05:58:13;12.00;;;1.65;;
5585;SDS011;2815;54.094;12.112;2023-05-03T06:00:47;4.93;;;1.30;;
5585;SDS011;2815;54.094;12.112;2023-05-03T06:03:16;11.32;;;1.70;;
5585;SDS011;2815;54.094;12.112;2023-05-03T06:05:47;6.68;;;1.52;;
5585;SDS011;2815;54.094;12.112;2023-05-03T06:08:15;11.85;;;1.63;;
5585;SDS011;2815;54.094;12.112;2023-05-03T06:10:44;13.57;;;1.63;;
5585;SDS011;2815;54.094;12.112;2023-05-03T06:13:12;7.68;;;1.40;;
5585;SDS011;2815;54.094;12.112;2023-05-03T06:15:41;6.85;;;1.63;;
5585;SDS011;2815;54.094;12.112;2023-05-03T06:18:10;10.38;;;1.35;;
5585;SDS011;2815;54.094;12.112;2023-05-03T06:20:38;8.13;;;1.70;;
5585;SDS011;2815;54.094;12.112;2023-05-03T06:23:06;5.75;;;1.38;;
5585;SDS011;2815;54.094;12.112;2023-05-03T06:25:36;3.08;;;1.05;;
5585;SDS011;2815;54.094;12.112;2023-05-03T06:28:05;13.32;;;1.55;;
5585;SDS011;2815;54.094;12.112;2023-05-03T06:30:34;6.28;;;1.35;;
5585;SDS011;2815;54.094;12.112;2023-05-03T06:35:44;5.93;;;1.33;;
5585;SDS011;2815;54.094;12.112;2023-05-03T06:38:17;7.95;;;1.90;;
5585;SDS011;2815;54.094;12.112;2023-05-03T06:40:45;7.53;;;1.50;;
5585;SDS011;2815;54.094;12.112;2023-05-03T06:43:14;5.57;;;1.38;;
5585;SDS011;2815;54.094;12.112;2023-05-03T06:45:49;13.82;;;1.80;;
5585;SDS011;2815;54.094;12.112;2023-05-03T06:48:18;10.35;;;1.33;;
5585;SDS011;2815;54.094;12.112;2023-05-03T06:50:47;13.25;;;2.17;;
5585;SDS011;2815;54.094;12.112;2023-05-03T06:53:16;8.57;;;1.63;;
5585;SDS011;2815;54.094;12.112;2023-05-03T06:55:44;8.82;;;1.73;;
5585;SDS011;2815;54.094;12.112;2023-05-03T06:58:12;8.52;;;1.60;;
5585;SDS011;2815;54.094;12.112;2023-05-03T07:00:41;6.20;;;1.52;;
5585;SDS011;2815;54.094;12.112;2023-05-03T07:03:09;8.25;;;1.60;;
5585;SDS011;2815;54.094;12.112;2023-05-03T07:05:38;7.22;;;1.40;;
5585;SDS011;2815;54.094;12.112;2023-05-03T07:08:06;7.45;;;1.35;;
5585;SDS011;2815;54.094;12.112;2023-05-03T07:10:34;10.25;;;1.45;;
5585;SDS011;2815;54.094;12.112;2023-05-03T07:13:02;5.80;;;1.40;;
5585;SDS011;2815;54.094;12.112;2023-05-03T07:15:30;9.23;;;1.50;;
5585;SDS011;2815;54.094;12.112;2023-05-03T07:17:59;5.10;;;1.35;;
5585;SDS011;2815;54.094;12.112;2023-05-03T07:20:27;5.50;;;1.48;;
5585;SDS011;2815;54.094;12.112;2023-05-03T07:22:55;5.63;;;1.30;;
5585;SDS011;2815;54.094;12.112;2023-05-03T07:25:23;4.75;;;1.20;;
5585;SDS011;2815;54.094;12.112;2023-05-03T07:27:51;6.15;;;1.30;;
5585;SDS011;2815;54.094;12.112;2023-05-03T07:30:20;5.05;;;1.35;;
5585;SDS011;2815;54.094;12.112;2023-05-03T07:32:48;6.40;;;1.30;;
5585;SDS011;2815;54.094;12.112;2023-05-03T07:35:21;12.85;;;1.70;;
5585;SDS011;2815;54.094;12.112;2023-05-03T07:37:51;7.85;;;1.58;;
5585;SDS011;2815;54.094;12.112;2023-05-03T07:40:19;8.57;;;1.50;;
5585;SDS011;2815;54.094;12.112;2023-05-03T07:42:47;6.25;;;1.33;;
5585;SDS011;2815;54.094;12.112;2023-05-03T07:45:15;7.07;;;1.23;;
5585;SDS011;2815;54.094;12.112;2023-05-03T07:47:45;4.40;;;1.30;;
5585;SDS011;2815;54.094;12.112;2023-05-03T07:50:16;12.30;;;1.75;;
5585;SDS011;2815;54.094;12.112;2023-05-03T07:52:47;6.68;;;1.70;;
5585;SDS011;2815;54.094;12.112;2023-05-03T07:55:17;7.10;;;2.03;;
5585;SDS011;2815;54.094;12.112;2023-05-03T07:57:46;7.88;;;1.77;;
5585;SDS011;2815;54.094;12.112;2023-05-03T08:00:14;6.55;;;1.58;;
5585;SDS011;2815;54.094;12.112;2023-05-03T08:02:43;3.33;;;1.15;;
5585;SDS011;2815;54.094;12.112;2023-05-03T08:05:11;10.27;;;1.55;;
5585;SDS011;2815;54.094;12.112;2023-05-03T08:07:40;10.27;;;1.67;;
5585;SDS011;2815;54.094;12.112;2023-05-03T08:13:48;5.30;;;1.40;;
5585;SDS011;2815;54.094;12.112;2023-05-03T08:25:23;8.00;;;1.67;;
5585;SDS011;2815;54.094;12.112;2023-05-03T08:27:51;5.20;;;1.58;;
5585;SDS011;2815;54.094;12.112;2023-05-03T08:30:20;5.88;;;1.40;;
5585;SDS011;2815;54.094;12.112;2023-05-03T08:32:48;5.43;;;1.33;;
5585;SDS011;2815;54.094;12.112;2023-05-03T08:35:17;4.03;;;1.30;;
5585;SDS011;2815;54.094;12.112;2023-05-03T08:37:45;5.68;;;0.90;;
5585;SDS011;2815;54.094;12.112;2023-05-03T08:40:13;2.95;;;1.15;;
5585;SDS011;2815;54.094;12.112;2023-05-03T08:42:44;3.30;;;1.00;;
5585;SDS011;2815;54.094;12.112;2023-05-03T08:45:13;4.65;;;1.08;;
5585;SDS011;2815;54.094;12.112;2023-05-03T08:47:43;6.75;;;1.40;;
5585;SDS011;2815;54.094;12.112;2023-05-03T08:50:12;3.20;;;1.05;;
5585;SDS011;2815;54.094;12.112;2023-05-03T08:52:42;7.00;;;1.10;;
5585;SDS011;2815;54.094;12.112;2023-05-03T08:55:12;5.43;;;1.00;;
5585;SDS011;2815;54.094;12.112;2023-05-03T08:57:40;5.03;;;0.90;;
5585;SDS011;2815;54.094;12.112;2023-05-03T09:00:08;4.40;;;1.02;;
5585;SDS011;2815;54.094;12.112;2023-05-03T09:02:39;5.28;;;1.00;;
5585;SDS011;2815;54.094;12.112;2023-05-03T09:07:59;2.83;;;0.77;;
5585;SDS011;2815;54.094;12.112;2023-05-03T09:10:28;4.65;;;0.95;;
5585;SDS011;2815;54.094;12.112;2023-05-03T09:12:57;4.22;;;1.13;;
5585;SDS011;2815;54.094;12.112;2023-05-03T09:15:26;6.03;;;1.00;;
5585;SDS011;2815;54.094;12.112;2023-05-03T09:18:05;6.40;;;0.90;;
5585;SDS011;2815;54.094;12.112;2023-05-03T09:20:37;5.72;;;0.95;;
5585;SDS011;2815;54.094;12.112;2023-05-03T09:23:08;2.13;;;0.70;;
5585;SDS011;2815;54.094;12.112;2023-05-03T09:25:43;6.10;;;1.00;;
5585;SDS011;2815;54.094;12.112;2023-05-03T09:28:12;4.00;;;0.82;;
5585;SDS011;2815;54.094;12.112;2023-05-03T09:30:41;5.00;;;1.05;;
5585;SDS011;2815;54.094;12.112;2023-05-03T09:33:09;3.78;;;0.90;;
5585;SDS011;2815;54.094;12.112;2023-05-03T09:35:39;6.13;;;1.10;;
5585;SDS011;2815;54.094;12.112;2023-05-03T09:38:25;4.22;;;0.93;;
5585;SDS011;2815;54.094;12.112;2023-05-03T09:40:54;6.90;;;1.10;;
5585;SDS011;2815;54.094;12.112;2023-05-03T09:43:24;5.97;;;1.35;;
5585;SDS011;2815;54.094;12.112;2023-05-03T09:45:52;3.33;;;1.10;;
5585;SDS011;2815;54.094;12.112;2023-05-03T09:48:35;1.38;;;0.80;;
5585;SDS011;2815;54.094;12.112;2023-05-03T09:51:04;4.75;;;1.23;;
5585;SDS011;2815;54.094;12.112;2023-05-03T09:53:33;6.75;;;1.25;;
5585;SDS011;2815;54.094;12.112;2023-05-03T09:56:02;7.15;;;0.82;;
5585;SDS011;2815;54.094;12.112;2023-05-03T09:58:34;2.65;;;0.95;;
5585;SDS011;2815;54.094;12.112;2023-05-03T10:01:02;3.10;;;0.98;;
5585;SDS011;2815;54.094;12.112;2023-05-03T10:03:31;10.23;;;1.15;;
5585;SDS011;2815;54.094;12.112;2023-05-03T10:06:02;2.70;;;0.60;;
5585;SDS011;2815;54.094;12.112;2023-05-03T10:08:38;1.83;;;0.80;;
5585;SDS011;2815;54.094;12.112;2023-05-03T10:11:08;2.45;;;0.93;;
5585;SDS011;2815;54.094;12.112;2023-05-03T10:13:39;2.88;;;1.00;;
5585;SDS011;2815;54.094;12.112;2023-05-03T10:16:07;3.83;;;1.00;;
5585;SDS011;2815;54.094;12.112;2023-05-03T10:18:39;6.55;;;0.90;;
5585;SDS011;2815;54.094;12.112;2023-05-03T10:21:13;7.32;;;0.82;;
5585;SDS011;2815;54.094;12.112;2023-05-03T10:26:39;5.30;;;1.13;;
5585;SDS011;2815;54.094;12.112;2023-05-03T10:32:30;6.63;;;1.45;;
5585;SDS011;2815;54.094;12.112;2023-05-03T10:35:00;8.35;;;1.60;;
5585;SDS011;2815;54.094;12.112;2023-05-03T10:37:32;9.73;;;1.35;;
5585;SDS011;2815;54.094;12.112;2023-05-03T10:40:05;4.97;;;1.17;;
5585;SDS011;2815;54.094;12.112;2023-05-03T10:42:35;7.35;;;1.25;;
5585;SDS011;2815;54.094;12.112;2023-05-03T10:45:08;3.22;;;0.98;;
5585;SDS011;2815;54.094;12.112;2023-05-03T10:50:45;8.13;;;1.23;;
5585;SDS011;2815;54.094;12.112;2023-05-03T10:53:36;7.20;;;1.42;;
5585;SDS011;2815;54.094;12.112;2023-05-03T10:56:05;10.15;;;1.50;;
5585;SDS011;2815;54.094;12.112;2023-05-03T10:58:35;5.43;;;1.23;;
5585;SDS011;2815;54.094;12.112;2023-05-03T11:01:04;6.13;;;1.42;;
5585;SDS011;2815;54.094;12.112;2023-05-03T11:03:33;7.50;;;1.67;;
5585;SDS011;2815;54.094;12.112;2023-05-03T11:06:08;3.45;;;1.10;;
5585;SDS011;2815;54.094;12.112;2023-05-03T11:08:38;4.10;;;1.20;;
5585;SDS011;2815;54.094;12.112;2023-05-03T11:11:06;3.38;;;1.00;;
5585;SDS011;2815;54.094;12.112;2023-05-03T11:13:35;3.15;;;1.05;;
5585;SDS011;2815;54.094;12.112;2023-05-03T11:16:03;8.10;;;1.00;;
5585;SDS011;2815;54.094;12.112;2023-05-03T11:18:32;5.63;;;1.38;;
5585;SDS011;2815;54.094;12.112;2023-05-03T11:21:00;6.28;;;1.17;;
5585;SDS011;2815;54.094;12.112;2023-05-03T11:23:29;8.05;;;1.60;;
5585;SDS011;2815;54.094;12.112;2023-05-03T11:25:58;2.35;;;0.98;;
5585;SDS011;2815;54.094;12.112;2023-05-03T11:28:26;5.28;;;1.30;;
5585;SDS011;2815;54.094;12.112;2023-05-03T11:30:54;10.23;;;1.70;;
5585;SDS011;2815;54.094;12.112;2023-05-03T11:33:22;5.00;;;0.88;;
5585;SDS011;2815;54.094;12.112;2023-05-03T11:35:53;8.43;;;1.27;;
5585;SDS011;2815;54.094;12.112;2023-05-03T11:38:21;7.47;;;1.45;;
5585;SDS011;2815;54.094;12.112;2023-05-03T11:40:49;3.72;;;1.20;;
5585;SDS011;2815;54.094;12.112;2023-05-03T11:43:18;3.13;;;1.10;;
5585;SDS011;2815;54.094;12.112;2023-05-03T11:45:46;6.03;;;1.00;;
5585;SDS011;2815;54.094;12.112;2023-05-03T11:48:15;3.65;;;0.98;;
5585;SDS011;2815;54.094;12.112;2023-05-03T11:50:44;4.88;;;0.90;;
5585;SDS011;2815;54.094;12.112;2023-05-03T11:53:13;2.60;;;0.95;;
5585;SDS011;2815;54.094;12.112;2023-05-03T11:55:42;7.05;;;1.33;;
5585;SDS011;2815;54.094;12.112;2023-05-03T11:58:13;2.95;;;0.82;;
5585;SDS011;2815;54.094;12.112;2023-05-03T12:00:44;5.15;;;1.42;;
5585;SDS011;2815;54.094;12.112;2023-05-03T12:03:16;4.95;;;1.02;;
5585;SDS011;2815;54.094;12.112;2023-05-03T12:05:46;5.38;;;0.90;;
5585;SDS011;2815;54.094;12.112;2023-05-03T12:08:15;6.15;;;1.10;;
5585;SDS011;2815;54.094;12.112;2023-05-03T12:10:47;4.15;;;1.48;;
5585;SDS011;2815;54.094;12.112;2023-05-03T12:13:25;4.55;;;1.10;;
5585;SDS011;2815;54.094;12.112;2023-05-03T12:15:58;6.53;;;1.20;;
5585;SDS011;2815;54.094;12.112;2023-05-03T12:18:45;4.47;;;1.23;;
5585;SDS011;2815;54.094;12.112;2023-05-03T12:21:17;2.35;;;1.15;;
5585;SDS011;2815;54.094;12.112;2023-05-03T12:23:49;5.75;;;0.93;;
5585;SDS011;2815;54.094;12.112;2023-05-03T12:26:21;3.35;;;0.90;;
5585;SDS011;2815;54.094;12.112;2023-05-03T12:28:51;5.88;;;0.98;;
5585;SDS011;2815;54.094;12.112;2023-05-03T12:31:23;3.22;;;0.80;;
5585;SDS011;2815;54.094;12.112;2023-05-03T12:33:54;4.75;;;0.98;;
5585;SDS011;2815;54.094;12.112;2023-05-03T12:36:42;4.03;;;0.93;;
5585;SDS011;2815;54.094;12.112;2023-05-03T12:39:14;4.47;;;1.13;;
5585;SDS011;2815;54.094;12.112;2023-05-03T12:44:33;4.22;;;1.08;;
5585;SDS011;2815;54.094;12.112;2023-05-03T12:47:03;2.65;;;1.25;;
5585;SDS011;2815;54.094;12.112;2023-05-03T12:49:35;4.20;;;1.27;;
5585;SDS011;2815;54.094;12.112;2023-05-03T12:52:05;3.78;;;1.17;;
5585;SDS011;2815;54.094;12.112;2023-05-03T12:54:36;3.70;;;1.10;;
5585;SDS011;2815;54.094;12.112;2023-05-03T12:57:07;3.97;;;1.02;;
5585;SDS011;2815;54.094;12.112;2023-05-03T12:59:41;5.40;;;1.20;;
5585;SDS011;2815;54.094;12.112;2023-05-03T13:02:19;2.97;;;1.10;;
5585;SDS011;2815;54.094;12.112;2023-05-03T13:04:51;4.03;;;1.27;;
5585;SDS011;2815;54.094;12.112;2023-05-03T13:07:26;5.88;;;1.30;;
5585;SDS011;2815;54.094;12.112;2023-05-03T13:09:57;3.97;;;1.08;;
5585;SDS011;2815;54.094;12.112;2023-05-03T13:12:28;5.47;;;1.33;;
5585;SDS011;2815;54.094;12.112;2023-05-03T13:14:59;4.72;;;1.05;;
5585;SDS011;2815;54.094;12.112;2023-05-03T13:17:30;3.67;;;0.93;;
5585;SDS011;2815;54.094;12.112;2023-05-03T13:19:58;2.80;;;0.80;;
5585;SDS011;2815;54.094;12.112;2023-05-03T13:22:26;11.90;;;1.10;;
5585;SDS011;2815;54.094;12.112;2023-05-03T13:24:54;3.58;;;0.88;;
5585;SDS011;2815;54.094;12.112;2023-05-03T13:27:22;7.80;;;1.10;;
5585;SDS011;2815;54.094;12.112;2023-05-03T13:29:50;4.40;;;0.80;;
5585;SDS011;2815;54.094;12.112;2023-05-03T13:32:18;2.60;;;0.80;;
5585;SDS011;2815;54.094;12.112;2023-05-03T13:34:48;7.05;;;0.95;;
5585;SDS011;2815;54.094;12.112;2023-05-03T13:37:16;1.52;;;0.80;;
5585;SDS011;2815;54.094;12.112;2023-05-03T13:39:45;4.85;;;1.25;;
5585;SDS011;2815;54.094;12.112;2023-05-03T13:42:13;2.40;;;1.10;;
5585;SDS011;2815;54.094;12.112;2023-05-03T13:44:43;5.72;;;1.10;;
5585;SDS011;2815;54.094;12.112;2023-05-03T13:47:11;4.70;;;1.15;;
5585;SDS011;2815;54.094;12.112;2023-05-03T13:49:39;5.43;;;1.10;;
5585;SDS011;2815;54.094;12.112;2023-05-03T13:52:09;4.90;;;1.33;;
5585;SDS011;2815;54.094;12.112;2023-05-03T13:54:37;9.32;;;1.17;;
5585;SDS011;2815;54.094;12.112;2023-05-03T13:57:05;3.78;;;1.20;;
5585;SDS011;2815;54.094;12.112;2023-05-03T13:59:33;4.13;;;0.98;;
5585;SDS011;2815;54.094;12.112;2023-05-03T14:02:02;2.65;;;0.85;;
5585;SDS011;2815;54.094;12.112;2023-05-03T14:04:30;3.78;;;1.00;;
5585;SDS011;2815;54.094;12.112;2023-05-03T14:06:58;5.22;;;1.30;;
5585;SDS011;2815;54.094;12.112;2023-05-03T14:09:30;4.65;;;1.20;;
5585;SDS011;2815;54.094;12.112;2023-05-03T14:11:58;5.75;;;1.45;;
5585;SDS011;2815;54.094;12.112;2023-05-03T14:14:26;2.15;;;0.90;;
5585;SDS011;2815;54.094;12.112;2023-05-03T14:16:54;8.50;;;1.23;;
5585;SDS011;2815;54.094;12.112;2023-05-03T14:19:24;4.75;;;1.25;;
5585;SDS011;2815;54.094;12.112;2023-05-03T14:21:54;3.30;;;1.20;;
5585;SDS011;2815;54.094;12.112;2023-05-03T14:24:24;4.60;;;1.30;;
5585;SDS011;2815;54.094;12.112;2023-05-03T14:26:54;6.63;;;1.88;;
5585;SDS011;2815;54.094;12.112;2023-05-03T14:29:22;3.63;;;1.13;;
5585;SDS011;2815;54.094;12.112;2023-05-03T14:31:50;3.78;;;1.40;;
5585;SDS011;2815;54.094;12.112;2023-05-03T14:34:18;3.45;;;1.10;;
5585;SDS011;2815;54.094;12.112;2023-05-03T14:36:46;2.83;;;1.10;;
5585;SDS011;2815;54.094;12.112;2023-05-03T14:39:14;5.05;;;1.50;;
5585;SDS011;2815;54.094;12.112;2023-05-03T14:41:42;5.53;;;1.23;;
5585;SDS011;2815;54.094;12.112;2023-05-03T14:44:12;6.38;;;1.38;;
5585;SDS011;2815;54.094;12.112;2023-05-03T14:46:40;13.80;;;2.58;;
5585;SDS011;2815;54.094;12.112;2023-05-03T14:49:09;5.90;;;1.83;;
5585;SDS011;2815;54.094;12.112;2023-05-03T14:51:37;8.98;;;1.52;;
5585;SDS011;2815;54.094;12.112;2023-05-03T14:54:06;4.18;;;1.30;;
5585;SDS011;2815;54.094;12.112;2023-05-03T14:56:34;3.92;;;1.42;;
5585;SDS011;2815;54.094;12.112;2023-05-03T14:59:03;4.45;;;1.40;;
5585;SDS011;2815;54.094;12.112;2023-05-03T15:01:32;7.82;;;1.50;;
5585;SDS011;2815;54.094;12.112;2023-05-03T15:04:01;4.28;;;1.40;;
5585;SDS011;2815;54.094;12.112;2023-05-03T15:06:33;5.40;;;1.40;;
5585;SDS011;2815;54.094;12.112;2023-05-03T15:09:04;7.57;;;2.00;;
5585;SDS011;2815;54.094;12.112;2023-05-03T15:11:34;5.10;;;1.30;;
5585;SDS011;2815;54.094;12.112;2023-05-03T15:14:02;10.52;;;1.75;;
5585;SDS011;2815;54.094;12.112;2023-05-03T15:16:30;10.38;;;1.73;;
5585;SDS011;2815;54.094;12.112;2023-05-03T15:19:02;5.18;;;1.60;;
5585;SDS011;2815;54.094;12.112;2023-05-03T15:21:42;7.25;;;1.70;;
5585;SDS011;2815;54.094;12.112;2023-05-03T15:24:12;5.18;;;1.60;;
5585;SDS011;2815;54.094;12.112;2023-05-03T15:26:40;4.78;;;1.60;;
5585;SDS011;2815;54.094;12.112;2023-05-03T15:29:08;7.32;;;1.60;;
5585;SDS011;2815;54.094;12.112;2023-05-03T15:31:36;4.95;;;1.38;;
5585;SDS011;2815;54.094;12.112;2023-05-03T15:34:06;6.05;;;1.60;;
5585;SDS011;2815;54.094;12.112;2023-05-03T15:36:34;5.53;;;1.38;;
5585;SDS011;2815;54.094;12.112;2023-05-03T15:39:03;4.50;;;1.60;;
5585;SDS011;2815;54.094;12.112;2023-05-03T15:41:31;6.78;;;1.73;;
5585;SDS011;2815;54.094;12.112;2023-05-03T15:43:59;9.55;;;1.70;;
5585;SDS011;2815;54.094;12.112;2023-05-03T15:46:31;4.18;;;1.20;;
5585;SDS011;2815;54.094;12.112;2023-05-03T15:48:59;6.30;;;1.90;;
5585;SDS011;2815;54.094;12.112;2023-05-03T15:51:28;4.85;;;1.42;;
5585;SDS011;2815;54.094;12.112;2023-05-03T15:53:57;5.85;;;1.50;;
5585;SDS011;2815;54.094;12.112;2023-05-03T15:56:25;5.38;;;1.70;;
5585;SDS011;2815;54.094;12.112;2023-05-03T15:58:53;4.18;;;1.48;;